Terminal Aerodrome Forecast
Issued by NWS

Home | Current Version | Previous Version | Text Only | Print | Product List | Glossary On
Versions: 1 2 3 4 5 6 7 8 9 10 11 12 13 14
000
FTUS46 KSEW 290523
TAFCLM
TAF
KCLM 290523Z 2906/3006 27008KT P6SM SCT020 OVC100
     FM291200 26006KT P6SM VCSH SCT012 BKN060
      TEMPO 2913/2916 -SHRA SCT010 OVC025
     FM291600 33009KT P6SM SCT025 BKN050
     FM292200 30013G22KT P6SM SCT030 BKN060
     FM300300 29009KT P6SM SCT060 SCT200=

USA.gov is the U.S. government's official web portal to all federal, state and local government web resources and services.